Time;durP1;ratioP1;P1;durP2;ratioP2;P2;SDS_P1;SDS_P2;PMS_P1;PMS_P2;Temp;Humidity;BMP_temperature;BMP_pressure;BME280_temperature;BME280_humidity;BME280_pressure;Samples;Min_cycle;Max_cycle;Signal;HPM_P1;HPM_P2
2024/01/31 00:02:14;;;;;;;12.50;5.90;;;;;;;-0.58;100.00;102224.28;105203;1252;73635;-55
2024/01/31 00:04:40;;;;;;;13.10;6.10;;;;;;;-0.56;100.00;102220.82;105114;1256;67634;-55
2024/01/31 00:07:07;;;;;;;9.70;5.80;;;;;;;-0.55;100.00;102221.23;105027;1251;72756;-55
2024/01/31 00:09:33;;;;;;;9.20;6.00;;;;;;;-0.55;100.00;102219.62;105065;1257;61393;-55
2024/01/31 00:12:00;;;;;;;9.70;5.10;;;;;;;-0.56;100.00;102212.02;105159;1251;60525;-56
2024/01/31 00:14:26;;;;;;;9.50;5.80;;;;;;;-0.58;100.00;102208.77;105142;1251;60481;-54
2024/01/31 00:16:53;;;;;;;10.30;6.30;;;;;;;-0.59;100.00;102207.66;105729;1251;60399;-53
2024/01/31 00:19:20;;;;;;;10.20;5.40;;;;;;;-0.63;100.00;102199.45;105704;1251;73064;-53
2024/01/31 00:21:46;;;;;;;7.40;5.10;;;;;;;-0.66;100.00;102192.77;105144;1251;60392;-54
2024/01/31 00:24:12;;;;;;;8.60;6.30;;;;;;;-0.70;100.00;102188.07;105204;1254;60540;-54
2024/01/31 00:26:39;;;;;;;11.90;7.00;;;;;;;-0.72;100.00;102187.42;105251;1253;73656;-57
2024/01/31 00:29:06;;;;;;;8.40;5.60;;;;;;;-0.75;100.00;102183.29;105141;1253;60541;-55
2024/01/31 00:31:33;;;;;;;11.30;6.20;;;;;;;-0.77;100.00;102194.34;105417;1251;70465;-56
2024/01/31 00:33:59;;;;;;;8.30;4.90;;;;;;;-0.76;100.00;102201.58;105099;1254;60421;-55
2024/01/31 00:36:27;;;;;;;8.80;4.90;;;;;;;-0.76;100.00;102198.41;104965;1253;60429;-55
2024/01/31 00:38:53;;;;;;;9.60;4.10;;;;;;;-0.74;100.00;102196.02;105171;1254;72718;-57
2024/01/31 00:41:20;;;;;;;6.30;4.10;;;;;;;-0.71;100.00;102194.38;106620;1255;67464;-54
2024/01/31 00:43:46;;;;;;;6.10;4.40;;;;;;;-0.67;100.00;102191.67;105346;1250;72689;-55
2024/01/31 00:46:13;;;;;;;9.20;5.20;;;;;;;-0.64;100.00;102194.09;105188;1254;60540;-55
2024/01/31 00:48:40;;;;;;;11.50;5.40;;;;;;;-0.60;100.00;102196.89;105454;1251;60380;-55
2024/01/31 00:51:13;;;;;;;8.60;5.00;;;;;;;-0.58;100.00;102196.41;105102;1254;73669;-55
2024/01/31 00:53:40;;;;;;;10.60;6.40;;;;;;;-0.58;100.00;102195.55;105196;1255;66919;-55
2024/01/31 00:56:08;;;;;;;10.10;5.50;;;;;;;-0.58;100.00;102191.66;105030;1251;74654;-56
2024/01/31 00:58:35;;;;;;;8.80;6.10;;;;;;;-0.57;100.00;102186.20;105303;1253;60448;-55
2024/01/31 01:01:02;;;;;;;9.20;5.20;;;;;;;-0.58;100.00;102179.30;105270;1251;60453;-55
2024/01/31 01:03:29;;;;;;;14.90;6.10;;;;;;;-0.59;100.00;102179.63;106502;1253;76506;-55
2024/01/31 01:05:56;;;;;;;8.70;5.40;;;;;;;-0.60;100.00;102176.97;105218;1257;67131;-56
2024/01/31 01:08:23;;;;;;;9.10;5.80;;;;;;;-0.61;100.00;102178.51;105161;1253;73217;-55
2024/01/31 01:10:49;;;;;;;10.00;5.70;;;;;;;-0.62;100.00;102177.40;105825;1251;60537;-53
2024/01/31 01:13:16;;;;;;;8.10;5.60;;;;;;;-0.65;100.00;102172.02;105798;1251;60763;-56
2024/01/31 01:15:43;;;;;;;9.40;6.60;;;;;;;-0.67;100.00;102172.80;105081;1257;73582;-56
2024/01/31 01:18:10;;;;;;;8.50;4.80;;;;;;;-0.70;100.00;102175.73;105008;1251;65947;-56
2024/01/31 01:20:36;;;;;;;8.70;5.40;;;;;;;-0.72;100.00;102166.64;106734;1253;72497;-56
2024/01/31 01:23:03;;;;;;;7.10;4.70;;;;;;;-0.73;100.00;102163.80;105168;1252;62506;-56
2024/01/31 01:25:30;;;;;;;8.00;5.00;;;;;;;-0.72;100.00;102158.02;105108;1251;60582;-57
2024/01/31 01:27:57;;;;;;;6.70;4.80;;;;;;;-0.71;100.00;102150.27;105984;1252;72614;-55
2024/01/31 01:30:23;;;;;;;6.40;4.40;;;;;;;-0.69;100.00;102145.59;105939;1251;68079;-55
2024/01/31 01:32:50;;;;;;;8.70;5.20;;;;;;;-0.66;100.00;102146.73;105204;1254;71758;-55
2024/01/31 01:35:17;;;;;;;9.50;4.80;;;;;;;-0.63;100.00;102142.80;105515;1251;60537;-54
2024/01/31 01:37:43;;;;;;;8.30;5.70;;;;;;;-0.60;100.00;102135.88;105177;1252;60811;-55
2024/01/31 01:40:11;;;;;;;6.50;5.00;;;;;;;-0.58;100.00;102136.29;106572;1252;72497;-55
2024/01/31 01:42:38;;;;;;;9.70;4.50;;;;;;;-0.56;100.00;102137.40;109204;1251;67198;-55
2024/01/31 01:45:05;;;;;;;8.80;5.00;;;;;;;-0.56;100.00;102140.06;109373;1251;71473;-55
2024/01/31 01:47:32;;;;;;;9.10;5.20;;;;;;;-0.56;100.00;102141.82;107271;1251;60416;-54
2024/01/31 01:49:58;;;;;;;7.40;4.60;;;;;;;-0.56;100.00;102139.52;109273;1253;59123;-56
2024/01/31 01:52:25;;;;;;;9.10;5.30;;;;;;;-0.58;100.00;102135.21;109227;1251;72700;-56
2024/01/31 01:54:52;;;;;;;9.10;5.40;;;;;;;-0.60;100.00;102129.87;109155;1252;66063;-56
2024/01/31 01:57:18;;;;;;;10.50;5.50;;;;;;;-0.61;100.00;102128.94;109303;1251;58097;-56
2024/01/31 01:59:44;;;;;;;8.80;6.00;;;;;;;-0.62;100.00;102128.23;109240;1251;58387;-56
2024/01/31 02:02:11;;;;;;;12.60;6.70;;;;;;;-0.62;100.00;102124.52;107896;1251;60465;-55
2024/01/31 02:04:38;;;;;;;11.60;5.40;;;;;;;-0.62;100.00;102123.30;105083;1253;73858;-55
2024/01/31 02:07:05;;;;;;;11.80;6.00;;;;;;;-0.61;100.00;102120.48;109321;1251;67430;-56
2024/01/31 02:09:32;;;;;;;10.00;5.20;;;;;;;-0.61;100.00;102127.88;109054;1253;71207;-56
2024/01/31 02:11:58;;;;;;;13.80;4.90;;;;;;;-0.62;100.00;102129.64;108977;1257;58532;-56
2024/01/31 02:14:25;;;;;;;9.20;5.60;;;;;;;-0.61;100.00;102123.84;109186;1251;60035;-56
2024/01/31 02:16:57;;;;;;;7.60;4.20;;;;;;;-0.59;100.00;102116.85;109171;1251;72537;-56
2024/01/31 02:19:23;;;;;;;8.50;5.40;;;;;;;-0.55;100.00;102115.41;109086;1251;65939;-56
2024/01/31 02:21:50;;;;;;;8.20;4.80;;;;;;;-0.51;100.00;102113.23;109256;1251;72842;-56
2024/01/31 02:24:16;;;;;;;10.50;6.30;;;;;;;-0.47;100.00;102109.50;109048;1253;58467;-56
2024/01/31 02:26:43;;;;;;;11.30;5.80;;;;;;;-0.43;100.00;102113.71;109272;1251;58550;-56
2024/01/31 02:29:11;;;;;;;9.40;5.70;;;;;;;-0.39;100.00;102114.52;106036;1251;60562;-54
2024/01/31 02:31:38;;;;;;;7.30;4.60;;;;;;;-0.37;100.00;102108.45;105042;1253;65771;-56
2024/01/31 02:34:04;;;;;;;10.10;5.70;;;;;;;-0.35;100.00;102107.78;105300;1253;72619;-55
2024/01/31 02:36:31;;;;;;;8.30;4.50;;;;;;;-0.34;100.00;102122.11;105108;1250;60407;-56
2024/01/31 02:38:57;;;;;;;8.50;4.90;;;;;;;-0.34;100.00;102118.77;105336;1253;60412;-56
2024/01/31 02:41:24;;;;;;;10.70;4.80;;;;;;;-0.34;100.00;102117.88;104984;1254;60441;-54
2024/01/31 02:43:50;;;;;;;9.10;4.40;;;;;;;-0.36;100.00;102120.11;105156;1254;60570;-57
2024/01/31 02:46:17;;;;;;;10.40;5.00;;;;;;;-0.37;100.00;102118.33;105201;1252;60559;-54
2024/01/31 02:48:45;;;;;;;5.30;3.90;;;;;;;-0.39;100.00;102116.11;105180;1254;60436;-57
2024/01/31 02:51:12;;;;;;;8.30;4.70;;;;;;;-0.41;100.00;102108.29;106152;1256;60856;-56
2024/01/31 02:53:38;;;;;;;7.70;5.10;;;;;;;-0.43;100.00;102105.42;105176;1256;60527;-55
2024/01/31 02:56:07;;;;;;;7.10;5.20;;;;;;;-0.45;100.00;102100.94;105317;1254;60336;-55
2024/01/31 02:58:33;;;;;;;7.80;4.00;;;;;;;-0.47;100.00;102099.27;106201;1254;73253;-53
2024/01/31 03:01:00;;;;;;;5.60;4.00;;;;;;;-0.50;100.00;102100.93;106078;1254;61084;-55
2024/01/31 03:03:27;;;;;;;9.60;4.70;;;;;;;-0.54;100.00;102096.56;104816;1252;60378;-55
2024/01/31 03:05:54;;;;;;;11.40;4.80;;;;;;;-0.56;100.00;102086.78;105028;1256;74287;-56
2024/01/31 03:08:21;;;;;;;6.90;4.00;;;;;;;-0.56;100.00;102083.44;105405;1253;67622;-55
2024/01/31 03:10:47;;;;;;;8.40;4.60;;;;;;;-0.55;100.00;102082.44;105199;1251;60431;-56
2024/01/31 03:13:14;;;;;;;8.00;4.70;;;;;;;-0.52;100.00;102080.41;105541;1253;61196;-55
2024/01/31 03:15:41;;;;;;;7.60;3.80;;;;;;;-0.49;100.00;102080.88;105349;1253;60533;-54
2024/01/31 03:18:07;;;;;;;9.30;4.40;;;;;;;-0.46;100.00;102083.09;104970;1252;74188;-55
2024/01/31 03:20:34;;;;;;;8.50;4.80;;;;;;;-0.44;100.00;102076.64;105207;1256;67185;-54
2024/01/31 03:23:01;;;;;;;6.90;4.40;;;;;;;-0.42;100.00;102077.40;105415;1253;60899;-55
2024/01/31 03:25:27;;;;;;;7.40;4.00;;;;;;;-0.40;100.00;102078.00;105100;1251;60558;-52
2024/01/31 03:27:54;;;;;;;4.90;3.90;;;;;;;-0.37;100.00;102080.54;105566;1250;60475;-54
2024/01/31 03:30:21;;;;;;;6.70;4.20;;;;;;;-0.36;100.00;102074.23;105104;1254;60415;-54
2024/01/31 03:32:47;;;;;;;7.20;4.70;;;;;;;-0.36;100.00;102077.41;105292;1251;67163;-56
2024/01/31 03:35:14;;;;;;;6.00;4.00;;;;;;;-0.37;100.00;102076.69;105397;1257;70389;-56
2024/01/31 03:37:42;;;;;;;9.10;5.50;;;;;;;-0.37;100.00;102071.90;105049;1253;60536;-56
2024/01/31 03:40:09;;;;;;;8.00;3.80;;;;;;;-0.38;100.00;102069.23;105200;1254;60896;-57
2024/01/31 03:42:36;;;;;;;8.70;4.80;;;;;;;-0.39;100.00;102064.96;105463;1257;73745;-55
2024/01/31 03:45:04;;;;;;;10.60;5.30;;;;;;;-0.40;100.00;102065.10;105785;1256;65735;-56
2024/01/31 03:47:35;;;;;;;6.70;3.90;;;;;;;-0.41;100.00;102065.94;105061;1251;73146;-55
2024/01/31 03:50:04;;;;;;;7.50;4.00;;;;;;;-0.41;100.00;102061.17;105180;1251;60520;-56
2024/01/31 03:52:31;;;;;;;6.00;4.30;;;;;;;-0.41;100.00;102062.25;106766;1251;61496;-54
2024/01/31 03:54:57;;;;;;;7.20;4.60;;;;;;;-0.40;100.00;102058.77;105088;1256;74119;-54
2024/01/31 03:57:24;;;;;;;5.80;3.10;;;;;;;-0.38;100.00;102064.13;105084;1253;67143;-54
2024/01/31 03:59:51;;;;;;;11.30;5.10;;;;;;;-0.34;100.00;102063.00;105033;1253;73138;-55
2024/01/31 04:02:17;;;;;;;9.60;5.00;;;;;;;-0.31;100.00;102062.59;104815;1251;60547;-55
2024/01/31 04:04:44;;;;;;;9.00;4.80;;;;;;;-0.28;100.00;102062.88;105577;1251;60514;-55
2024/01/31 04:07:11;;;;;;;8.10;5.00;;;;;;;-0.26;100.00;102065.23;105102;1253;73820;-55
2024/01/31 04:09:37;;;;;;;6.60;4.70;;;;;;;-0.25;100.00;102063.64;105114;1252;67228;-56
2024/01/31 04:12:04;;;;;;;7.80;5.30;;;;;;;-0.25;100.00;102064.52;105039;1253;72552;-54
2024/01/31 04:14:31;;;;;;;13.50;6.60;;;;;;;-0.25;100.00;102069.81;106368;1255;59336;-55
2024/01/31 04:16:57;;;;;;;10.60;5.80;;;;;;;-0.27;100.00;102071.02;104991;1255;60368;-54
2024/01/31 04:19:24;;;;;;;8.60;5.60;;;;;;;-0.29;100.00;102067.59;108127;1251;74704;-55
2024/01/31 04:21:53;;;;;;;11.90;6.60;;;;;;;-0.32;100.00;102065.17;104987;1253;60572;-55
2024/01/31 04:24:19;;;;;;;9.90;5.90;;;;;;;-0.35;100.00;102062.63;105991;1253;73239;-54
2024/01/31 04:26:46;;;;;;;12.00;7.00;;;;;;;-0.39;100.00;102059.86;105094;1256;60521;-55
2024/01/31 04:29:12;;;;;;;9.80;5.80;;;;;;;-0.43;100.00;102062.04;105173;1251;60387;-55
2024/01/31 04:31:39;;;;;;;11.20;6.00;;;;;;;-0.46;100.00;102057.69;105278;1253;60422;-54
2024/01/31 04:34:06;;;;;;;11.10;6.70;;;;;;;-0.49;100.00;102052.10;104949;1253;67114;-54
2024/01/31 04:36:34;;;;;;;12.00;6.30;;;;;;;-0.53;100.00;102051.13;105215;1251;73069;-55
2024/01/31 04:39:05;;;;;;;11.80;5.90;;;;;;;-0.56;100.00;102057.02;105586;1258;60413;-55
2024/01/31 04:41:31;;;;;;;12.90;7.00;;;;;;;-0.59;100.00;102053.73;105184;1256;60358;-54
2024/01/31 04:43:57;;;;;;;32.60;11.80;;;;;;;-0.60;100.00;102050.51;105071;1255;60446;-56
2024/01/31 04:46:24;;;;;;;54.00;18.70;;;;;;;-0.62;100.00;102048.52;104872;1251;68627;-54
2024/01/31 04:48:51;;;;;;;74.00;24.60;;;;;;;-0.64;100.00;102045.27;105038;1251;73502;-55
2024/01/31 04:51:18;;;;;;;53.10;20.50;;;;;;;-0.63;100.00;102046.71;105111;1251;60547;-55
2024/01/31 04:53:44;;;;;;;47.70;19.20;;;;;;;-0.61;100.00;102044.31;104966;1253;60524;-53
2024/01/31 04:56:11;;;;;;;40.00;16.60;;;;;;;-0.61;100.00;102037.09;105202;1255;60432;-53
2024/01/31 04:58:37;;;;;;;26.60;12.90;;;;;;;-0.59;100.00;102036.06;104913;1254;60511;-55
2024/01/31 05:01:05;;;;;;;23.90;11.70;;;;;;;-0.59;100.00;102036.08;109237;1252;74079;-55
2024/01/31 05:03:31;;;;;;;19.20;8.10;;;;;;;-0.59;100.00;102030.59;109246;1253;59669;-56
2024/01/31 05:05:58;;;;;;;16.60;8.10;;;;;;;-0.60;100.00;102030.42;109351;1254;59091;-56
2024/01/31 05:08:28;;;;;;;10.30;6.30;;;;;;;-0.60;100.00;102025.66;108744;1251;73912;-56
2024/01/31 05:10:55;;;;;;;21.70;9.00;;;;;;;-0.61;100.00;102024.05;105211;1254;67429;-54
2024/01/31 05:13:22;;;;;;;27.80;10.10;;;;;;;-0.63;100.00;102019.55;109299;1251;72643;-55
2024/01/31 05:15:48;;;;;;;67.80;18.10;;;;;;;-0.66;100.00;102023.67;109224;1251;58254;-55
2024/01/31 05:18:16;;;;;;;81.90;23.60;;;;;;;-0.68;100.00;102022.90;109302;1251;59119;-56
2024/01/31 05:20:42;;;;;;;67.40;21.30;;;;;;;-0.70;100.00;102020.39;109305;1253;73621;-55
2024/01/31 05:23:09;;;;;;;83.90;26.20;;;;;;;-0.70;100.00;102019.48;109301;1250;66971;-56
2024/01/31 05:25:35;;;;;;;72.00;21.30;;;;;;;-0.71;100.00;102019.30;108760;1253;60418;-54
2024/01/31 05:28:02;;;;;;;39.00;13.50;;;;;;;-0.70;100.00;102019.13;105116;1254;61304;-54
2024/01/31 05:30:29;;;;;;;21.60;9.20;;;;;;;-0.69;100.00;102018.13;105098;1254;60437;-54
2024/01/31 05:32:56;;;;;;;19.90;7.80;;;;;;;-0.68;100.00;102023.63;105024;1253;72315;-55
2024/01/31 05:35:22;;;;;;;14.20;5.60;;;;;;;-0.65;100.00;102019.64;106849;1255;67232;-54
2024/01/31 05:37:49;;;;;;;9.80;4.70;;;;;;;-0.63;100.00;102016.02;105286;1253;60412;-53
2024/01/31 05:40:16;;;;;;;11.50;5.40;;;;;;;-0.58;100.00;102016.35;106313;1252;61207;-55
2024/01/31 05:42:43;;;;;;;11.50;5.70;;;;;;;-0.54;100.00;102014.92;105069;1254;61620;-53
2024/01/31 05:45:11;;;;;;;8.10;5.10;;;;;;;-0.50;100.00;102016.62;105956;1253;72622;-53
2024/01/31 05:47:38;;;;;;;9.00;5.50;;;;;;;-0.47;100.00;102013.02;105201;1255;68007;-54
2024/01/31 05:50:05;;;;;;;15.40;6.80;;;;;;;-0.44;100.00;102009.42;104938;1253;72467;-56
2024/01/31 05:52:32;;;;;;;18.20;9.10;;;;;;;-0.42;100.00;102003.83;106379;1256;60536;-54
2024/01/31 05:54:59;;;;;;;26.30;12.70;;;;;;;-0.40;100.00;102002.66;105125;1253;60389;-53
2024/01/31 05:57:25;;;;;;;23.60;12.70;;;;;;;-0.39;100.00;102004.48;107610;1253;73911;-53
2024/01/31 05:59:52;;;;;;;15.80;9.00;;;;;;;-0.39;100.00;102007.11;105214;1258;67140;-54
2024/01/31 06:02:19;;;;;;;17.60;8.10;;;;;;;-0.39;100.00;102005.17;105154;1253;71350;-54
2024/01/31 06:04:45;;;;;;;11.40;6.90;;;;;;;-0.40;100.00;102004.60;105027;1251;60486;-53
2024/01/31 06:07:12;;;;;;;11.50;6.60;;;;;;;-0.41;100.00;102005.98;104643;1256;60505;-52
2024/01/31 06:09:39;;;;;;;10.70;6.40;;;;;;;-0.41;100.00;102009.15;105148;1253;74334;-54
2024/01/31 06:12:06;;;;;;;14.50;7.40;;;;;;;-0.42;100.00;102005.77;105111;1256;67293;-55
2024/01/31 06:14:36;;;;;;;9.20;6.30;;;;;;;-0.42;100.00;102005.23;105240;1253;71475;-54
2024/01/31 06:17:04;;;;;;;13.30;7.50;;;;;;;-0.43;100.00;102003.30;105406;1256;60862;-55
2024/01/31 06:19:30;;;;;;;11.80;7.00;;;;;;;-0.43;100.00;102002.76;105486;1253;60538;-54
2024/01/31 06:21:57;;;;;;;14.00;7.40;;;;;;;-0.41;100.00;102007.55;106115;1253;73976;-54
2024/01/31 06:24:24;;;;;;;10.90;6.80;;;;;;;-0.40;100.00;102001.79;105014;1251;65918;-55
2024/01/31 06:26:51;;;;;;;13.10;6.90;;;;;;;-0.37;100.00;102007.19;105222;1256;60521;-53
2024/01/31 06:29:18;;;;;;;11.30;6.30;;;;;;;-0.33;100.00;102008.17;105376;1252;60441;-56
2024/01/31 06:31:48;;;;;;;13.30;7.80;;;;;;;-0.30;100.00;102009.52;105725;1256;61017;-55
2024/01/31 06:34:16;;;;;;;18.60;10.50;;;;;;;-0.27;100.00;102008.19;107982;1253;73324;-54
2024/01/31 06:36:44;;;;;;;19.20;11.20;;;;;;;-0.23;100.00;102008.12;105440;1256;67323;-54
2024/01/31 06:39:11;;;;;;;20.90;12.70;;;;;;;-0.20;100.00;102010.20;105460;1251;72417;-55
2024/01/31 06:41:38;;;;;;;20.40;15.00;;;;;;;-0.16;100.00;102010.98;105209;1253;60446;-53
2024/01/31 06:44:04;;;;;;;27.40;15.80;;;;;;;-0.14;100.00;102008.77;105138;1253;60440;-54
2024/01/31 06:46:31;;;;;;;24.90;16.90;;;;;;;-0.11;100.00;102010.29;105209;1253;72573;-53
2024/01/31 06:48:58;;;;;;;28.80;18.30;;;;;;;-0.10;100.00;102010.50;105287;1255;65980;-54
2024/01/31 06:51:25;;;;;;;29.10;19.60;;;;;;;-0.11;100.00;102010.66;105328;1251;72381;-54
2024/01/31 06:53:52;;;;;;;23.20;16.10;;;;;;;-0.11;100.00;102009.24;105065;1253;60438;-54
2024/01/31 06:56:19;;;;;;;18.40;12.30;;;;;;;-0.12;100.00;102012.21;105100;1256;60492;-55
2024/01/31 06:58:47;;;;;;;17.40;11.50;;;;;;;-0.13;100.00;102007.94;105601;1252;74227;-53
2024/01/31 07:01:21;;;;;;;13.50;10.10;;;;;;;-0.12;100.00;102006.00;105496;1256;66965;-55
2024/01/31 07:03:47;;;;;;;13.90;8.90;;;;;;;-0.12;100.00;102003.18;105087;1253;71345;-54
2024/01/31 07:06:15;;;;;;;15.20;8.60;;;;;;;-0.12;100.00;102001.08;105502;1256;61120;-54
2024/01/31 07:08:42;;;;;;;12.10;8.40;;;;;;;-0.10;100.00;102001.35;105132;1254;60833;-53
2024/01/31 07:11:08;;;;;;;14.40;7.80;;;;;;;-0.07;100.00;102001.39;104966;1253;60438;-53
2024/01/31 07:13:35;;;;;;;14.10;7.50;;;;;;;-0.02;100.00;101996.45;105212;1253;66344;-54
2024/01/31 07:16:09;;;;;;;14.20;8.70;;;;;;;0.05;100.00;101995.77;105305;1253;73130;-54
2024/01/31 07:18:39;;;;;;;12.00;7.70;;;;;;;0.10;100.00;101997.67;105588;1251;60527;-54
2024/01/31 07:21:06;;;;;;;14.30;7.40;;;;;;;0.17;100.00;101998.23;109261;1252;60340;-54
2024/01/31 07:23:32;;;;;;;13.30;7.90;;;;;;;0.21;100.00;101999.96;109206;1251;59869;-55
2024/01/31 07:25:59;;;;;;;16.20;8.30;;;;;;;0.26;100.00;102000.81;105589;1253;60543;-53
2024/01/31 07:28:25;;;;;;;12.10;8.40;;;;;;;0.31;100.00;101997.60;104964;1253;60543;-53
2024/01/31 07:30:52;;;;;;;13.60;8.20;;;;;;;0.36;100.00;101993.69;105131;1256;60448;-53
2024/01/31 07:33:21;;;;;;;13.30;8.60;;;;;;;0.41;100.00;101989.05;105065;1253;60378;-53
2024/01/31 07:35:48;;;;;;;14.10;9.10;;;;;;;0.45;100.00;101989.15;106708;1253;73836;-53
2024/01/31 07:38:14;;;;;;;18.10;10.50;;;;;;;0.48;100.00;101990.50;105230;1254;60463;-53
2024/01/31 07:40:43;;;;;;;15.00;8.60;;;;;;;0.50;100.00;101989.85;108459;1252;73148;-53
2024/01/31 07:43:10;;;;;;;16.70;11.00;;;;;;;0.53;100.00;101991.48;105251;1251;60542;-53
2024/01/31 07:45:36;;;;;;;22.80;12.80;;;;;;;0.54;100.00;101995.61;105154;1253;60514;-53
2024/01/31 07:48:03;;;;;;;15.30;10.30;;;;;;;0.56;100.00;101991.61;105164;1254;74061;-53
2024/01/31 07:50:30;;;;;;;16.50;10.50;;;;;;;0.58;100.00;101994.65;109199;1250;139089;-54
2024/01/31 07:54:35;;;;;;;19.40;11.70;;;;;;;0.62;100.00;102092.48;102211;1292;601346;-53
2024/01/31 07:57:03;;;;;;;23.60;13.40;;;;;;;0.63;100.00;102102.40;103894;1275;59361;-52
2024/01/31 07:59:30;;;;;;;21.60;12.80;;;;;;;0.63;100.00;102085.98;103807;1277;60281;-53
2024/01/31 08:01:57;;;;;;;23.60;12.70;;;;;;;0.64;100.00;102073.65;103703;1274;71244;-53
2024/01/31 08:04:25;;;;;;;19.70;10.40;;;;;;;0.68;100.00;102065.97;103811;1273;66452;-55
2024/01/31 08:06:52;;;;;;;15.90;9.00;;;;;;;0.72;100.00;102062.40;108124;1269;71724;-54
2024/01/31 08:09:22;;;;;;;10.00;6.80;;;;;;;0.78;100.00;102061.30;107879;1271;382810;-55
2024/01/31 08:11:50;;;;;;;11.40;6.40;;;;;;;0.85;100.00;102064.14;105181;1272;60081;-54
2024/01/31 08:14:17;;;;;;;10.90;7.00;;;;;;;0.91;100.00;102056.55;104159;1268;71005;-55
2024/01/31 08:16:44;;;;;;;8.70;5.60;;;;;;;0.97;100.00;102060.40;104108;1279;67474;-55
2024/01/31 08:19:12;;;;;;;9.30;6.70;;;;;;;1.00;100.00;102063.35;108184;1267;72830;-56
2024/01/31 08:21:39;;;;;;;13.40;7.90;;;;;;;1.04;100.00;102065.02;105085;1266;59805;-55
2024/01/31 08:24:07;;;;;;;11.20;7.10;;;;;;;1.06;100.00;102068.11;103960;1272;61885;-56
2024/01/31 08:26:34;;;;;;;11.10;6.40;;;;;;;1.09;100.00;102067.13;104102;1272;74044;-55
2024/01/31 08:29:01;;;;;;;9.20;5.90;;;;;;;1.10;100.00;102065.03;104174;1269;67076;-55
2024/01/31 08:31:45;;;;;;;16.70;6.70;;;;;;;1.11;100.00;102070.17;104766;1258;73188;-55
2024/01/31 08:34:13;;;;;;;11.70;7.70;;;;;;;1.10;100.00;102064.67;104473;1263;59578;-55
2024/01/31 08:36:41;;;;;;;14.50;7.50;;;;;;;1.09;100.00;102066.09;104810;1263;59762;-56
2024/01/31 08:39:08;;;;;;;12.20;7.30;;;;;;;1.08;100.00;102063.04;104609;1265;71854;-57
2024/01/31 08:41:36;;;;;;;16.40;8.50;;;;;;;1.08;100.00;102056.48;104498;1264;67769;-56
2024/01/31 08:44:03;;;;;;;12.50;7.70;;;;;;;1.08;100.00;102053.84;105461;1260;71757;-56
2024/01/31 08:46:31;;;;;;;13.10;7.50;;;;;;;1.09;100.00;102046.64;104636;1262;59921;-56
2024/01/31 08:49:05;;;;;;;13.50;7.90;;;;;;;1.10;100.00;102042.40;104633;1257;62222;-56
2024/01/31 08:51:35;;;;;;;10.80;7.30;;;;;;;1.11;100.00;102039.23;104875;1260;71898;-55
2024/01/31 08:54:02;;;;;;;12.90;7.40;;;;;;;1.12;100.00;102037.66;105655;1262;66756;-56
2024/01/31 08:56:30;;;;;;;13.40;8.70;;;;;;;1.12;100.00;102033.25;104798;1258;74931;-54
2024/01/31 08:58:57;;;;;;;14.30;8.20;;;;;;;1.13;100.00;102030.44;104629;1263;59722;-55
2024/01/31 09:01:25;;;;;;;13.20;8.30;;;;;;;1.12;100.00;102023.34;104560;1264;59629;-55
2024/01/31 09:03:54;;;;;;;14.40;8.00;;;;;;;1.13;100.00;102021.41;104465;1261;73131;-56
2024/01/31 09:06:24;;;;;;;13.10;8.30;;;;;;;1.15;100.00;102014.58;104971;1258;67184;-56
2024/01/31 09:08:52;;;;;;;14.80;9.10;;;;;;;1.18;100.00;102010.95;105002;1263;70328;-56
2024/01/31 09:11:19;;;;;;;13.00;7.10;;;;;;;1.22;100.00;102010.68;104864;1257;59881;-56
2024/01/31 09:13:47;;;;;;;12.10;6.70;;;;;;;1.28;100.00;102009.44;104886;1261;59737;-56
2024/01/31 09:16:14;;;;;;;12.50;7.60;;;;;;;1.36;100.00;102004.15;105051;1260;72982;-56
2024/01/31 09:18:42;;;;;;;13.10;7.30;;;;;;;1.47;100.00;101997.71;104941;1260;65950;-56
2024/01/31 09:21:20;;;;;;;15.50;9.10;;;;;;;1.62;100.00;101997.19;104979;1260;70708;-57
2024/01/31 09:23:48;;;;;;;14.10;8.40;;;;;;;1.79;100.00;102003.95;104887;1260;59926;-54
2024/01/31 09:26:20;;;;;;;13.30;8.40;;;;;;;1.95;100.00;102004.15;104957;1256;59753;-57
2024/01/31 09:28:47;;;;;;;11.20;7.80;;;;;;;2.11;100.00;102005.37;104950;1256;75333;-56
2024/01/31 09:31:25;;;;;;;11.90;8.70;;;;;;;2.27;100.00;102007.48;105227;1260;65954;-56
2024/01/31 09:33:53;;;;;;;16.30;10.50;;;;;;;2.41;100.00;102008.34;106987;1260;71436;-56
2024/01/31 09:36:21;;;;;;;17.20;11.90;;;;;;;2.54;100.00;102003.98;105258;1257;59737;-57
2024/01/31 09:38:49;;;;;;;18.90;9.60;;;;;;;2.67;100.00;102003.70;105264;1261;59563;-57
2024/01/31 09:41:16;;;;;;;16.20;8.40;;;;;;;2.78;100.00;101999.68;104626;1254;71975;-58
2024/01/31 09:43:44;;;;;;;11.70;7.20;;;;;;;2.88;100.00;101991.71;104618;1260;67692;-58
2024/01/31 09:46:12;;;;;;;15.30;8.10;;;;;;;2.98;100.00;101988.70;104736;1259;71771;-58
2024/01/31 09:48:40;;;;;;;17.20;9.70;;;;;;;3.09;100.00;101989.60;104807;1261;60073;-58
2024/01/31 09:51:07;;;;;;;19.70;8.50;;;;;;;3.18;100.00;101988.52;104733;1261;59843;-57
2024/01/31 09:53:38;;;;;;;16.80;8.00;;;;;;;3.25;100.00;101986.85;104860;1260;71505;-57
2024/01/31 09:56:06;;;;;;;13.80;8.00;;;;;;;3.32;100.00;101980.59;105013;1260;66927;-55
2024/01/31 09:58:34;;;;;;;10.70;7.00;;;;;;;3.40;100.00;101978.06;104836;1257;70474;-57
2024/01/31 10:01:01;;;;;;;12.30;7.70;;;;;;;3.47;100.00;101980.48;104715;1257;59738;-57
2024/01/31 10:03:40;;;;;;;10.20;6.40;;;;;;;3.55;100.00;101986.30;105394;1257;60486;-58
2024/01/31 10:06:07;;;;;;;19.40;11.00;;;;;;;3.60;100.00;101981.58;105104;1259;72146;-58
2024/01/31 10:08:39;;;;;;;25.40;13.70;;;;;;;3.63;100.00;101977.37;104729;1257;66332;-57
2024/01/31 10:11:06;;;;;;;29.80;15.40;;;;;;;3.66;100.00;101972.42;104834;1260;71154;-58
2024/01/31 10:13:34;;;;;;;26.50;13.70;;;;;;;3.69;100.00;101971.42;104887;1257;59578;-58
2024/01/31 10:16:01;;;;;;;14.80;9.20;;;;;;;3.75;100.00;101971.86;104491;1261;59628;-57
2024/01/31 10:18:29;;;;;;;15.10;9.40;;;;;;;3.81;100.00;101970.34;104676;1257;75137;-58
2024/01/31 10:20:57;;;;;;;13.30;8.30;;;;;;;3.86;100.00;101973.09;104921;1255;65960;-58
2024/01/31 10:23:25;;;;;;;10.60;6.70;;;;;;;3.92;100.00;101972.28;105848;1258;72035;-58
2024/01/31 10:25:53;;;;;;;13.30;7.20;;;;;;;4.00;100.00;101974.70;104923;1257;59701;-59
2024/01/31 10:28:21;;;;;;;12.20;7.00;;;;;;;4.08;100.00;101969.84;104982;1259;59803;-58
2024/01/31 10:30:49;;;;;;;14.10;7.10;;;;;;;4.14;100.00;101969.22;104902;1260;71874;-58
2024/01/31 10:33:17;;;;;;;12.70;6.70;;;;;;;4.18;100.00;101968.54;104730;1261;66181;-56
2024/01/31 10:35:45;;;;;;;16.30;8.80;;;;;;;4.19;100.00;101963.58;104807;1258;71471;-60
2024/01/31 10:38:33;;;;;;;10.30;7.20;;;;;;;4.17;100.00;101966.58;104817;1257;60169;-58
2024/01/31 10:41:02;;;;;;;11.20;6.10;;;;;;;4.17;100.00;101962.84;108962;1256;61004;-59
2024/01/31 10:43:31;;;;;;;10.20;5.30;;;;;;;4.15;100.00;101960.52;105073;1257;71885;-59
2024/01/31 10:45:58;;;;;;;7.80;5.40;;;;;;;4.13;100.00;101964.23;108929;1257;66205;-59
2024/01/31 10:48:26;;;;;;;11.70;5.10;;;;;;;4.12;100.00;101964.39;108837;1257;72775;-60
2024/01/31 10:50:54;;;;;;;11.30;6.70;;;;;;;4.13;100.00;101959.95;108993;1254;58488;-59
2024/01/31 10:53:22;;;;;;;13.90;7.90;;;;;;;4.14;100.00;101961.04;108735;1254;58830;-59
2024/01/31 10:55:49;;;;;;;11.40;7.10;;;;;;;4.15;100.00;101952.35;108852;1254;73093;-59
2024/01/31 10:58:17;;;;;;;11.80;7.20;;;;;;;4.16;100.00;101950.59;108902;1257;67087;-59
2024/01/31 11:00:45;;;;;;;10.00;5.40;;;;;;;4.19;100.00;101949.91;108914;1255;72752;-59
2024/01/31 11:03:14;;;;;;;6.20;4.30;;;;;;;4.22;100.00;101948.16;108996;1255;58872;-59
2024/01/31 11:05:41;;;;;;;8.20;5.50;;;;;;;4.22;100.00;101946.20;107627;1255;59368;-59
2024/01/31 11:08:19;;;;;;;8.00;4.80;;;;;;;4.22;100.00;101939.99;104898;1259;71858;-59